Hamburg Helmut Schmidt Airport

EDDH · Hansestadt Hamburg, Deutschland

7. Oktober 2022

Uhrzeit Code Wetter Temp. Sichtweite Wolkendecke Wind METAR/SPECI
11:20
V
13 °C 10 km+ 3.000 ft 220° 220° 12 kt METAR EDDH 070920Z AUTO 22012KT 9999 BKN030 13/08 Q1022 TEMPO 22015G25KT
10:50
V
13 °C 10 km+ - 200° 200° 11 kt METAR EDDH 070850Z AUTO 20011KT 9999 SCT031 13/08 Q1022 NOSIG
10:20
V
12 °C 10 km+ 3.100 ft 200° 200° 10 kt METAR EDDH 070820Z AUTO 20010KT 9999 SCT026 BKN031 12/08 Q1023 NOSIG
09:50
V
12 °C 10 km+ - 210° 210° 10 kt METAR EDDH 070750Z AUTO 21010KT 160V230 CAVOK 12/07 Q1023 NOSIG
09:20
V
11 °C 10 km+ - 160° 160° 7 kt METAR EDDH 070720Z AUTO 16007KT CAVOK 11/07 Q1023 NOSIG
08:50
V
9 °C 10 km+ - 160° 160° 8 kt METAR EDDH 070650Z AUTO 16008KT CAVOK 09/06 Q1023 NOSIG
08:20
V
8 °C 10 km+ - 170° 170° 7 kt METAR EDDH 070620Z AUTO 17007KT CAVOK 08/06 Q1023 NOSIG
07:50
V
8 °C 10 km+ - 170° 170° 7 kt METAR EDDH 070550Z AUTO 17007KT CAVOK 08/06 Q1023 NOSIG
07:20
V
8 °C 10 km+ - 170° 170° 7 kt METAR EDDH 070520Z AUTO 17007KT CAVOK 08/06 Q1024 NOSIG
06:50
V
8 °C 10 km+ - 170° 170° 5 kt METAR EDDH 070450Z AUTO 17005KT CAVOK 08/06 Q1024 NOSIG
06:20
V
8 °C 10 km+ - 170° 170° 7 kt METAR EDDH 070420Z AUTO 17007KT CAVOK 08/06 Q1024 NOSIG
05:50
V
7 °C 10 km+ - 160° 160° 6 kt METAR EDDH 070350Z AUTO 16006KT CAVOK 07/06 Q1024 NOSIG
05:20
V
7 °C 10 km+ - 160° 160° 6 kt METAR EDDH 070320Z AUTO 16006KT CAVOK 07/06 Q1024 NOSIG
04:50
V
7 °C 10 km+ - 160° 160° 6 kt METAR EDDH 070250Z AUTO 16006KT CAVOK 07/06 Q1025 NOSIG
04:20
V
8 °C 10 km+ - 140° 140° 4 kt METAR EDDH 070220Z AUTO 14004KT CAVOK 08/06 Q1025 NOSIG
03:50
V
8 °C 10 km+ - 190° 190° 4 kt METAR EDDH 070150Z AUTO 19004KT 150V230 CAVOK 08/06 Q1025 NOSIG
03:20
V
8 °C 10 km+ - 200° 200° 5 kt METAR EDDH 070120Z AUTO 20005KT 160V220 CAVOK 08/06 Q1026 NOSIG
02:50
V
8 °C 10 km+ - 210° 210° 5 kt METAR EDDH 070050Z AUTO 21005KT CAVOK 08/06 Q1026 NOSIG
02:20
V
8 °C 10 km+ - 210° 210° 7 kt METAR EDDH 070020Z AUTO 21007KT CAVOK 08/06 Q1026 NOSIG
01:50
V
9 °C 10 km+ - 220° 220° 7 kt METAR EDDH 062350Z AUTO 22007KT CAVOK 09/06 Q1026 NOSIG
01:20
V
9 °C 10 km+ - 220° 220° 6 kt METAR EDDH 062320Z AUTO 22006KT CAVOK 09/06 Q1027 NOSIG
00:50
V
9 °C 10 km+ - 220° 220° 5 kt METAR EDDH 062250Z AUTO 22005KT CAVOK 09/07 Q1027 NOSIG
00:20
V
9 °C 10 km+ - 220° 220° 7 kt METAR EDDH 062220Z AUTO 22007KT CAVOK 09/07 Q1027 NOSIG

6. Oktober 2022

Uhrzeit Code Wetter Temp. Sichtweite Wolkendecke Wind METAR/SPECI
23:50
V
9 °C 10 km+ - 220° 220° 7 kt METAR EDDH 062150Z AUTO 22007KT CAVOK 09/06 Q1027 NOSIG
23:20
V
10 °C 10 km+ - 220° 220° 5 kt METAR EDDH 062120Z AUTO 22005KT CAVOK 10/07 Q1028 NOSIG
22:50
V
11 °C 10 km+ - 230° 230° 6 kt METAR EDDH 062050Z AUTO 23006KT CAVOK 11/07 Q1027 NOSIG
22:20
V
10 °C 10 km+ - 220° 220° 6 kt METAR EDDH 062020Z AUTO 22006KT CAVOK 10/07 Q1028 NOSIG
21:50
V
11 °C 10 km+ - 230° 230° 5 kt METAR EDDH 061950Z AUTO 23005KT CAVOK 11/07 Q1027 NOSIG
21:20
V
11 °C 10 km+ - 220° 220° 4 kt METAR EDDH 061920Z AUTO 22004KT CAVOK 11/07 Q1027 NOSIG
20:50
V
11 °C 10 km+ - 220° 220° 5 kt METAR EDDH 061850Z AUTO 22005KT CAVOK 11/07 Q1027 NOSIG
20:20
V
12 °C 10 km+ - 220° 220° 5 kt METAR EDDH 061820Z AUTO 22005KT CAVOK 12/07 Q1027 NOSIG
19:50
V
12 °C 10 km+ - 230° 230° 5 kt METAR EDDH 061750Z AUTO 23005KT CAVOK 12/07 Q1027 NOSIG
19:20
V
13 °C 10 km+ - 230° 230° 6 kt METAR EDDH 061720Z AUTO 23006KT CAVOK 13/07 Q1027 NOSIG
18:50
V
14 °C 10 km+ - 240° 240° 7 kt METAR EDDH 061650Z AUTO 24007KT CAVOK 14/07 Q1027 NOSIG
18:20
V
15 °C 10 km+ - 240° 240° 7 kt METAR EDDH 061620Z AUTO 24007KT 220V280 CAVOK 15/07 Q1027 NOSIG
17:50
V
16 °C 10 km+ - 260° 260° 9 kt METAR EDDH 061550Z AUTO 26009KT CAVOK 16/07 Q1027 NOSIG
17:20
V
16 °C 10 km+ - 240° 240° 10 kt METAR EDDH 061520Z AUTO 24010KT 220V280 CAVOK 16/07 Q1026 NOSIG
16:50
V
16 °C 10 km+ - 240° 240° 13 kt METAR EDDH 061450Z AUTO 24013KT 210V290 CAVOK 16/07 Q1026 TEMPO 26015G25KT
16:20
V
16 °C 10 km+ - 240° 240° 15 kt METAR EDDH 061420Z AUTO 24015KT 9999 FEW044 16/07 Q1026 TEMPO 26015G25KT
15:50
V
17 °C 10 km+ - 250° 250° 14 - 24 kt METAR EDDH 061350Z AUTO 25014G24KT 220V280 9999 FEW042 17/07 Q1026 TEMPO 26015G25KT
15:20
V
16 °C 10 km+ - 240° 240° 15 kt METAR EDDH 061320Z AUTO 24015KT 9999 FEW042 16/07 Q1026 TEMPO 26015G25KT
14:50
V
16 °C 10 km+ - 250° 250° 16 kt METAR EDDH 061250Z AUTO 25016KT 230V290 9999 SCT039 16/08 Q1026 TEMPO 26015G25KT
14:20
V
15 °C 10 km+ - 260° 260° 15 kt METAR EDDH 061220Z AUTO 26015KT 230V290 9999 SCT039 15/07 Q1026 TEMPO 26015G25KT
13:50
V
16 °C 10 km+ - 240° 240° 16 kt METAR EDDH 061150Z AUTO 24016KT 9999 SCT037 16/07 Q1026 TEMPO 26015G25KT
13:20
V
16 °C 10 km+ - 260° 260° 15 kt METAR EDDH 061120Z AUTO 26015KT 230V290 9999 SCT036 16/08 Q1026 TEMPO 26015G25KT
12:50
V
15 °C 10 km+ 3.300 ft 250° 250° 16 kt METAR EDDH 061050Z AUTO 25016KT 220V290 9999 BKN033 15/08 Q1026
12:20
V
15 °C 10 km+ 3.100 ft 250° 250° 15 kt METAR EDDH 061020Z AUTO 25015KT 220V280 9999 BKN031 15/08 Q1025 TEMPO 26015G25KT
11:50
V
15 °C 10 km+ - 260° 260° 15 kt METAR EDDH 060950Z AUTO 26015KT 9999 SCT030 15/09 Q1025
11:20
V
15 °C 10 km+ - 250° 250° 14 kt METAR EDDH 060920Z AUTO 25014KT 220V280 9999 FEW027 15/09 Q1025 TEMPO 26015G25KT
10:50
V
14 °C 10 km+ - 250° 250° 12 kt METAR EDDH 060850Z AUTO 25012KT 220V290 9999 FEW024 14/09 Q1024 TEMPO 26015G25KT
10:20
V
14 °C 10 km+ - 250° 250° 15 - 25 kt METAR EDDH 060820Z AUTO 25015G25KT CAVOK 14/09 Q1023 NOSIG
09:50
V
14 °C 10 km+ - 250° 250° 14 kt METAR EDDH 060750Z AUTO 25014KT CAVOK 14/09 Q1023 TEMPO 26015G25KT
09:20
V
13 °C 10 km+ - 250° 250° 12 kt METAR EDDH 060720Z AUTO 25012KT CAVOK 13/09 Q1022 TEMPO 26015G25KT
08:50
V
13 °C 10 km+ - 240° 240° 13 kt METAR EDDH 060650Z AUTO 24013KT CAVOK 13/09 Q1022 TEMPO 26015G25KT
08:20
V
13 °C 10 km+ - 250° 250° 13 - 24 kt METAR EDDH 060620Z AUTO 25013G24KT 220V280 CAVOK 13/09 Q1021 NOSIG
07:50
V
13 °C 10 km+ - 250° 250° 13 kt METAR EDDH 060550Z AUTO 25013KT CAVOK 13/09 Q1021 TEMPO 26015G25KT
07:20
V
13 °C 10 km+ - 250° 250° 11 kt METAR EDDH 060520Z AUTO 25011KT 220V280 CAVOK 13/09 Q1020 TEMPO 26015G25KT
06:50
V
13 °C 10 km+ - 240° 240° 12 kt METAR EDDH 060450Z AUTO 24012KT 210V280 CAVOK 13/09 Q1019 TEMPO 26015G25KT
06:20
V
13 °C 10 km+ - 250° 250° 11 kt METAR EDDH 060420Z AUTO 25011KT CAVOK 13/09 Q1019 TEMPO 26015G25KT
05:50
V
13 °C 10 km+ - 250° 250° 13 kt METAR EDDH 060350Z AUTO 25013KT 220V280 9999 FEW023 13/10 Q1018 TEMPO 26015G25KT
05:20
M
14 °C 10 km+ 2.800 ft 250° 250° 12 kt METAR EDDH 060320Z AUTO 25012KT 9999 SCT023 BKN028 14/10 Q1018 NOSIG
04:50
M
14 °C 10 km+ 2.200 ft 250° 250° 13 kt METAR EDDH 060250Z AUTO 25013KT 220V280 9999 BKN022 BKN027 14/10 Q1017 TEMPO 26015G25KT
04:20
V
14 °C 10 km+ - 250° 250° 13 - 24 kt METAR EDDH 060220Z AUTO 25013G24KT 220V280 CAVOK 14/10 Q1017 NOSIG
03:50
V
14 °C 10 km+ - 250° 250° 12 kt METAR EDDH 060150Z AUTO 25012KT 220V280 9999 FEW021 14/11 Q1016 TEMPO 26015G25KT
03:20
V
15 °C 10 km+ - 250° 250° 10 kt METAR EDDH 060120Z AUTO 25010KT 220V290 9999 FEW024 15/11 Q1016 TEMPO 26015G25KT
02:50
V
15 °C 10 km+ - 260° 260° 13 - 23 kt METAR EDDH 060050Z AUTO 26013G23KT 230V290 9999 SCT023 SCT030 15/11 Q1015 TEMPO 26020G30KT
02:20
V
15 °C 10 km+ 4.700 ft 250° 250° 14 - 25 kt METAR EDDH 060020Z AUTO 25014G25KT 220V290 9999 SCT023 BKN047 15/11 Q1015 TEMPO 24020G30KT
01:50
V
15 °C 10 km+ - 250° 250° 10 kt METAR EDDH 052350Z AUTO 25010KT 220V280 9999 FEW023 15/12 Q1014 TEMPO 24020G30KT
01:20
V
16 °C 10 km+ 4.500 ft 250° 250° 14 kt METAR EDDH 052320Z AUTO 25014KT 220V280 9999 FEW020 BKN045 16/12 Q1014 TEMPO 24020G30KT
00:50
M
17 °C 10 km+ 2.700 ft 240° 240° 16 kt METAR EDDH 052250Z AUTO 24016KT 210V270 9999 -SHRA BKN027 BKN032 BKN041 FEW///TCU 17/12 Q1013 TEMPO 24020G30KT
00:20
V
17 °C 10 km+ 3.000 ft 240° 240° 13 kt METAR EDDH 052220Z AUTO 24013KT 9999 BKN030 OVC040 17/12 Q1012 TEMPO 24020G30KT

5. Oktober 2022

Uhrzeit Code Wetter Temp. Sichtweite Wolkendecke Wind METAR/SPECI
23:50
V
17 °C 10 km+ 3.300 ft 240° 240° 16 - 30 kt METAR EDDH 052150Z AUTO 24016G30KT 9999 SCT027 BKN033 BKN039 17/12 Q1012 NOSIG
23:20
V
17 °C 10 km+ 4.900 ft 230° 230° 13 kt METAR EDDH 052120Z AUTO 23013KT 9999 FEW034 BKN049 17/12 Q1012 TEMPO 23015G25KT
22:50
V
17 °C 10 km+ 3.600 ft 220° 220° 12 kt METAR EDDH 052050Z AUTO 22012KT 9999 OVC036 17/12 Q1012 TEMPO 23015G25KT
22:20
V
17 °C 10 km+ 3.700 ft 230° 230° 14 kt METAR EDDH 052020Z AUTO 23014KT 9999 OVC037 17/12 Q1012 TEMPO 23015G25KT
21:50
V
17 °C 10 km+ - 220° 220° 13 kt METAR EDDH 051950Z AUTO 22013KT 9999 SCT040 17/12 Q1012 NOSIG
21:20
V
17 °C 10 km+ - 210° 210° 15 kt METAR EDDH 051920Z AUTO 21015KT CAVOK 17/11 Q1011 TEMPO 23015G25KT
20:50
V
17 °C 10 km+ 4.900 ft 200° 200° 14 kt METAR EDDH 051850Z AUTO 20014KT 9999 BKN049 17/11 Q1011 TEMPO 23015G25KT
20:20
V
17 °C 10 km+ 4.600 ft 190° 190° 12 kt METAR EDDH 051820Z AUTO 19012KT 9999 FEW035 OVC046 17/12 Q1012 NOSIG
19:50
V
17 °C 10 km+ 4.000 ft 190° 190° 10 kt METAR EDDH 051750Z AUTO 19010KT 9999 OVC040 17/12 Q1012 NOSIG
19:20
V
17 °C 10 km+ 3.600 ft 200° 200° 10 kt METAR EDDH 051720Z AUTO 20010KT 9999 OVC036 17/12 Q1012 NOSIG
18:50
V
17 °C 10 km+ 3.500 ft 210° 210° 11 kt METAR EDDH 051650Z AUTO 21011KT 9999 BKN035 17/12 Q1011 NOSIG
18:20
V
17 °C 10 km+ 3.400 ft 200° 200° 14 kt METAR EDDH 051620Z AUTO 20014KT 9999 OVC034 17/12 Q1011 NOSIG
17:50
V
18 °C 10 km+ 3.400 ft 190° 190° 12 kt METAR EDDH 051550Z AUTO 19012KT 9999 OVC034 18/12 Q1011 NOSIG
17:20
V
17 °C 10 km+ 3.400 ft 210° 210° 11 kt METAR EDDH 051520Z AUTO 21011KT 9999 OVC034 17/12 Q1012
16:50
V
17 °C 10 km+ 3.000 ft 210° 210° 11 kt METAR EDDH 051450Z AUTO 21011KT 9999 OVC030 17/12 Q1012 NOSIG
16:20
M
17 °C 10 km+ 2.800 ft 210° 210° 12 kt METAR EDDH 051420Z AUTO 21012KT 9999 OVC028 17/12 Q1012 TEMPO 22015G25KT
15:50
M
17 °C 10 km+ 2.700 ft 210° 210° 15 kt METAR EDDH 051350Z AUTO 21015KT 9999 OVC027 17/11 Q1012 TEMPO 22015G25KT
15:20
M
16 °C 10 km+ 2.600 ft 210° 210° 17 kt METAR EDDH 051320Z AUTO 21017KT 9999 OVC026 16/11 Q1012 TEMPO 22015G25KT
14:50
M
16 °C 10 km+ 2.500 ft 210° 210° 14 kt METAR EDDH 051250Z AUTO 21014KT 9999 OVC025 16/11 Q1012 TEMPO 23015G25KT
14:20
M
16 °C 10 km+ 2.400 ft 210° 210° 14 kt METAR EDDH 051220Z AUTO 21014KT 9999 OVC024 16/11 Q1013 TEMPO 23015G25KT
13:50
M
15 °C 10 km+ 2.200 ft 220° 220° 13 kt METAR EDDH 051150Z AUTO 22013KT 9999 OVC022 15/11 Q1013 TEMPO 23015G25KT
13:20
M
15 °C 10 km+ 2.200 ft 220° 220° 14 kt METAR EDDH 051120Z AUTO 22014KT 9999 OVC022 15/11 Q1013 TEMPO 23015G25KT
12:50
M
15 °C 10 km+ 2.300 ft 220° 220° 16 kt METAR EDDH 051050Z AUTO 22016KT 9999 OVC023 15/11 Q1014 TEMPO 23015G25KT
12:20
M
15 °C 10 km+ 2.500 ft 220° 220° 16 kt METAR EDDH 051020Z AUTO 22016KT 9999 BKN025 OVC029 15/11 Q1014 TEMPO 23015G25KT
11:50
M
16 °C 10 km+ 2.900 ft 220° 220° 16 kt METAR EDDH 050950Z AUTO 22016KT 9999 FEW022 OVC029 16/11 Q1014 TEMPO 23015G25KT
11:20
M
15 °C 10 km+ 2.900 ft 220° 220° 13 kt METAR EDDH 050920Z AUTO 22013KT 9999 FEW019 OVC029 15/11 Q1014 TEMPO 23015G25KT
10:50
V
15 °C 10 km+ 3.000 ft 210° 210° 15 kt METAR EDDH 050850Z AUTO 21015KT 9999 BKN030 15/11 Q1014 TEMPO 23015G25KT
Ältere Daten

Wir und Dritte verfolgen dein Internetverhalten auf unserer Website mit Cookies. Wenn du fortfährst, gehen wir davon aus, dass du mit unserer Cookie-Richtlinie einverstanden bist. Mehr erfahren